sensor_id;sensor_type;location;lat;lon;timestamp;temperature;humidity
20174;DHT22;10246;50.620;7.232;2023-03-08T00:00:15;3.10;16.80
20174;DHT22;10246;50.620;7.232;2023-03-08T00:02:43;3.10;17.30
20174;DHT22;10246;50.620;7.232;2023-03-08T00:05:10;3.10;16.90
20174;DHT22;10246;50.620;7.232;2023-03-08T00:07:37;3.20;16.60
20174;DHT22;10246;50.620;7.232;2023-03-08T00:10:04;3.10;16.10
20174;DHT22;10246;50.620;7.232;2023-03-08T00:12:31;3.20;16.30
20174;DHT22;10246;50.620;7.232;2023-03-08T00:14:57;3.20;16.40
20174;DHT22;10246;50.620;7.232;2023-03-08T00:17:25;3.20;16.20
20174;DHT22;10246;50.620;7.232;2023-03-08T00:19:52;3.20;16.40
20174;DHT22;10246;50.620;7.232;2023-03-08T00:22:19;3.20;16.60
20174;DHT22;10246;50.620;7.232;2023-03-08T00:24:46;3.20;15.20
20174;DHT22;10246;50.620;7.232;2023-03-08T00:27:13;3.20;15.30
20174;DHT22;10246;50.620;7.232;2023-03-08T00:29:39;3.20;15.90
20174;DHT22;10246;50.620;7.232;2023-03-08T00:32:06;3.20;16.60
20174;DHT22;10246;50.620;7.232;2023-03-08T00:34:34;3.10;16.40
20174;DHT22;10246;50.620;7.232;2023-03-08T00:37:01;3.20;16.70
20174;DHT22;10246;50.620;7.232;2023-03-08T00:39:27;3.10;17.00
20174;DHT22;10246;50.620;7.232;2023-03-08T00:41:54;3.10;16.90
20174;DHT22;10246;50.620;7.232;2023-03-08T00:44:21;3.10;16.70
20174;DHT22;10246;50.620;7.232;2023-03-08T00:46:48;3.10;16.10
20174;DHT22;10246;50.620;7.232;2023-03-08T00:49:14;3.10;16.40
20174;DHT22;10246;50.620;7.232;2023-03-08T00:51:42;3.10;16.50
20174;DHT22;10246;50.620;7.232;2023-03-08T00:54:09;3.10;16.90
20174;DHT22;10246;50.620;7.232;2023-03-08T00:56:36;3.10;16.80
20174;DHT22;10246;50.620;7.232;2023-03-08T00:59:03;3.00;17.00
20174;DHT22;10246;50.620;7.232;2023-03-08T01:01:29;3.00;17.30
20174;DHT22;10246;50.620;7.232;2023-03-08T01:03:56;3.00;17.50
20174;DHT22;10246;50.620;7.232;2023-03-08T01:06:23;3.10;17.90
20174;DHT22;10246;50.620;7.232;2023-03-08T01:08:51;3.10;17.60
20174;DHT22;10246;50.620;7.232;2023-03-08T01:11:20;3.10;17.30
20174;DHT22;10246;50.620;7.232;2023-03-08T01:13:48;3.20;17.40
20174;DHT22;10246;50.620;7.232;2023-03-08T01:16:17;3.20;17.00
20174;DHT22;10246;50.620;7.232;2023-03-08T01:18:44;3.20;17.10
20174;DHT22;10246;50.620;7.232;2023-03-08T01:21:11;3.20;17.10
20174;DHT22;10246;50.620;7.232;2023-03-08T01:23:38;3.20;17.00
20174;DHT22;10246;50.620;7.232;2023-03-08T01:26:08;3.10;16.80
20174;DHT22;10246;50.620;7.232;2023-03-08T01:28:36;3.10;16.80
20174;DHT22;10246;50.620;7.232;2023-03-08T01:31:04;3.10;16.50
20174;DHT22;10246;50.620;7.232;2023-03-08T01:33:31;3.10;16.50
20174;DHT22;10246;50.620;7.232;2023-03-08T01:35:58;3.10;16.60
20174;DHT22;10246;50.620;7.232;2023-03-08T01:38:25;3.10;16.70
20174;DHT22;10246;50.620;7.232;2023-03-08T01:40:55;3.10;16.50
20174;DHT22;10246;50.620;7.232;2023-03-08T01:43:25;3.10;16.40
20174;DHT22;10246;50.620;7.232;2023-03-08T01:46:20;3.10;16.20
20174;DHT22;10246;50.620;7.232;2023-03-08T01:48:51;3.10;16.10
20174;DHT22;10246;50.620;7.232;2023-03-08T01:51:21;3.10;16.10
20174;DHT22;10246;50.620;7.232;2023-03-08T01:53:50;3.10;16.90
20174;DHT22;10246;50.620;7.232;2023-03-08T01:56:18;3.10;16.20
20174;DHT22;10246;50.620;7.232;2023-03-08T01:58:49;3.10;16.30
20174;DHT22;10246;50.620;7.232;2023-03-08T02:01:18;3.00;16.60
20174;DHT22;10246;50.620;7.232;2023-03-08T02:03:45;3.00;16.50
20174;DHT22;10246;50.620;7.232;2023-03-08T02:06:13;3.00;16.30
20174;DHT22;10246;50.620;7.232;2023-03-08T02:08:40;3.10;16.50
20174;DHT22;10246;50.620;7.232;2023-03-08T02:11:08;3.00;16.60
20174;DHT22;10246;50.620;7.232;2023-03-08T02:13:35;2.90;16.90
20174;DHT22;10246;50.620;7.232;2023-03-08T02:16:06;3.00;17.10
20174;DHT22;10246;50.620;7.232;2023-03-08T02:18:33;2.90;17.20
20174;DHT22;10246;50.620;7.232;2023-03-08T02:21:01;2.90;17.30
20174;DHT22;10246;50.620;7.232;2023-03-08T02:23:29;2.90;17.60
20174;DHT22;10246;50.620;7.232;2023-03-08T02:25:58;2.90;17.80
20174;DHT22;10246;50.620;7.232;2023-03-08T02:28:26;2.90;17.50
20174;DHT22;10246;50.620;7.232;2023-03-08T02:30:54;2.90;17.40
20174;DHT22;10246;50.620;7.232;2023-03-08T02:33:21;2.90;17.10
20174;DHT22;10246;50.620;7.232;2023-03-08T02:35:48;2.90;17.00
20174;DHT22;10246;50.620;7.232;2023-03-08T02:38:17;2.90;17.10
20174;DHT22;10246;50.620;7.232;2023-03-08T02:40:46;2.90;17.00
20174;DHT22;10246;50.620;7.232;2023-03-08T02:43:16;2.90;17.00
20174;DHT22;10246;50.620;7.232;2023-03-08T02:45:43;2.90;17.00
20174;DHT22;10246;50.620;7.232;2023-03-08T02:48:10;2.90;16.70
20174;DHT22;10246;50.620;7.232;2023-03-08T02:50:37;2.90;16.10
20174;DHT22;10246;50.620;7.232;2023-03-08T02:53:04;2.90;16.30
20174;DHT22;10246;50.620;7.232;2023-03-08T02:55:31;2.90;16.10
20174;DHT22;10246;50.620;7.232;2023-03-08T02:58:02;2.80;16.00
20174;DHT22;10246;50.620;7.232;2023-03-08T03:00:28;2.80;16.20
20174;DHT22;10246;50.620;7.232;2023-03-08T03:02:55;2.80;16.30
20174;DHT22;10246;50.620;7.232;2023-03-08T03:05:22;2.80;16.40
20174;DHT22;10246;50.620;7.232;2023-03-08T03:07:49;2.80;16.50
20174;DHT22;10246;50.620;7.232;2023-03-08T03:10:16;2.80;16.60
20174;DHT22;10246;50.620;7.232;2023-03-08T03:12:43;2.90;16.60
20174;DHT22;10246;50.620;7.232;2023-03-08T03:15:11;2.90;16.50
20174;DHT22;10246;50.620;7.232;2023-03-08T03:17:38;2.80;16.20
20174;DHT22;10246;50.620;7.232;2023-03-08T03:20:07;2.90;15.90
20174;DHT22;10246;50.620;7.232;2023-03-08T03:22:34;2.80;16.40
20174;DHT22;10246;50.620;7.232;2023-03-08T03:25:01;2.90;16.50
20174;DHT22;10246;50.620;7.232;2023-03-08T03:27:28;2.90;16.20
20174;DHT22;10246;50.620;7.232;2023-03-08T03:29:55;2.90;16.40
20174;DHT22;10246;50.620;7.232;2023-03-08T03:32:23;2.80;16.20
20174;DHT22;10246;50.620;7.232;2023-03-08T03:34:49;2.80;17.00
20174;DHT22;10246;50.620;7.232;2023-03-08T03:37:16;2.80;16.60
20174;DHT22;10246;50.620;7.232;2023-03-08T03:39:43;2.80;17.10
20174;DHT22;10246;50.620;7.232;2023-03-08T03:42:10;2.70;17.30
20174;DHT22;10246;50.620;7.232;2023-03-08T03:44:37;2.70;17.70
20174;DHT22;10246;50.620;7.232;2023-03-08T03:47:04;2.70;18.20
20174;DHT22;10246;50.620;7.232;2023-03-08T03:49:32;2.70;18.30
20174;DHT22;10246;50.620;7.232;2023-03-08T03:51:59;2.80;18.20
20174;DHT22;10246;50.620;7.232;2023-03-08T03:54:26;2.80;18.00
20174;DHT22;10246;50.620;7.232;2023-03-08T03:56:53;2.80;17.80
20174;DHT22;10246;50.620;7.232;2023-03-08T03:59:22;2.80;18.20
20174;DHT22;10246;50.620;7.232;2023-03-08T04:01:49;2.80;18.20
20174;DHT22;10246;50.620;7.232;2023-03-08T04:04:16;2.70;18.60
20174;DHT22;10246;50.620;7.232;2023-03-08T04:06:44;2.80;18.70
20174;DHT22;10246;50.620;7.232;2023-03-08T04:09:13;2.80;18.40
20174;DHT22;10246;50.620;7.232;2023-03-08T04:11:40;2.80;17.90
20174;DHT22;10246;50.620;7.232;2023-03-08T04:14:07;2.70;18.00
20174;DHT22;10246;50.620;7.232;2023-03-08T04:16:35;2.70;18.40
20174;DHT22;10246;50.620;7.232;2023-03-08T04:19:05;2.80;18.30
20174;DHT22;10246;50.620;7.232;2023-03-08T04:21:32;2.70;18.20
20174;DHT22;10246;50.620;7.232;2023-03-08T04:24:00;2.70;18.30
20174;DHT22;10246;50.620;7.232;2023-03-08T04:26:27;2.80;18.40
20174;DHT22;10246;50.620;7.232;2023-03-08T04:28:54;2.80;18.20
20174;DHT22;10246;50.620;7.232;2023-03-08T04:31:23;2.80;18.50
20174;DHT22;10246;50.620;7.232;2023-03-08T04:33:50;2.80;18.30
20174;DHT22;10246;50.620;7.232;2023-03-08T04:36:17;2.80;18.30
20174;DHT22;10246;50.620;7.232;2023-03-08T04:38:45;2.70;18.20
20174;DHT22;10246;50.620;7.232;2023-03-08T04:41:14;2.70;18.30
20174;DHT22;10246;50.620;7.232;2023-03-08T04:43:44;2.70;18.30
20174;DHT22;10246;50.620;7.232;2023-03-08T04:46:11;2.70;18.40
20174;DHT22;10246;50.620;7.232;2023-03-08T04:48:37;2.70;18.30
20174;DHT22;10246;50.620;7.232;2023-03-08T04:51:06;2.70;18.40
20174;DHT22;10246;50.620;7.232;2023-03-08T04:53:33;2.70;18.50
20174;DHT22;10246;50.620;7.232;2023-03-08T04:56:01;2.70;18.50
20174;DHT22;10246;50.620;7.232;2023-03-08T04:58:29;2.60;18.50
20174;DHT22;10246;50.620;7.232;2023-03-08T05:00:56;2.60;18.60
20174;DHT22;10246;50.620;7.232;2023-03-08T05:03:24;2.60;18.90
20174;DHT22;10246;50.620;7.232;2023-03-08T05:05:52;2.60;19.10
20174;DHT22;10246;50.620;7.232;2023-03-08T05:08:19;2.60;19.50
20174;DHT22;10246;50.620;7.232;2023-03-08T05:10:47;2.60;19.60
20174;DHT22;10246;50.620;7.232;2023-03-08T05:13:14;2.60;19.70
20174;DHT22;10246;50.620;7.232;2023-03-08T05:15:42;2.60;19.70
20174;DHT22;10246;50.620;7.232;2023-03-08T05:18:09;2.60;19.60
20174;DHT22;10246;50.620;7.232;2023-03-08T05:20:36;2.60;19.60
20174;DHT22;10246;50.620;7.232;2023-03-08T05:23:03;2.60;19.90
20174;DHT22;10246;50.620;7.232;2023-03-08T05:25:29;2.60;19.80
20174;DHT22;10246;50.620;7.232;2023-03-08T05:27:56;2.60;19.60
20174;DHT22;10246;50.620;7.232;2023-03-08T05:30:23;2.60;19.80
20174;DHT22;10246;50.620;7.232;2023-03-08T05:32:51;2.60;19.60
20174;DHT22;10246;50.620;7.232;2023-03-08T05:35:18;2.60;19.60
20174;DHT22;10246;50.620;7.232;2023-03-08T05:37:45;2.50;19.60
20174;DHT22;10246;50.620;7.232;2023-03-08T05:40:12;2.50;20.20
20174;DHT22;10246;50.620;7.232;2023-03-08T05:42:39;2.60;20.10
20174;DHT22;10246;50.620;7.232;2023-03-08T05:45:06;2.60;19.90
20174;DHT22;10246;50.620;7.232;2023-03-08T05:47:33;2.50;20.10
20174;DHT22;10246;50.620;7.232;2023-03-08T05:50:01;2.60;19.60
20174;DHT22;10246;50.620;7.232;2023-03-08T05:52:29;2.60;19.90
20174;DHT22;10246;50.620;7.232;2023-03-08T05:54:56;2.60;19.40
20174;DHT22;10246;50.620;7.232;2023-03-08T05:57:23;2.60;19.70
20174;DHT22;10246;50.620;7.232;2023-03-08T05:59:49;2.60;19.70
20174;DHT22;10246;50.620;7.232;2023-03-08T06:02:16;2.70;19.60
20174;DHT22;10246;50.620;7.232;2023-03-08T06:04:43;2.70;19.70
20174;DHT22;10246;50.620;7.232;2023-03-08T06:07:11;2.70;19.60
20174;DHT22;10246;50.620;7.232;2023-03-08T06:09:38;2.70;19.50
20174;DHT22;10246;50.620;7.232;2023-03-08T06:12:05;2.70;19.20
20174;DHT22;10246;50.620;7.232;2023-03-08T06:14:32;2.60;19.40
20174;DHT22;10246;50.620;7.232;2023-03-08T06:16:59;2.60;19.70
20174;DHT22;10246;50.620;7.232;2023-03-08T06:19:26;2.70;19.60
20174;DHT22;10246;50.620;7.232;2023-03-08T06:21:52;2.70;19.60
20174;DHT22;10246;50.620;7.232;2023-03-08T06:24:21;2.70;19.80
20174;DHT22;10246;50.620;7.232;2023-03-08T06:26:48;2.60;19.40
20174;DHT22;10246;50.620;7.232;2023-03-08T06:29:14;2.60;19.70
20174;DHT22;10246;50.620;7.232;2023-03-08T06:31:41;2.70;19.80
20174;DHT22;10246;50.620;7.232;2023-03-08T06:34:11;2.60;19.80
20174;DHT22;10246;50.620;7.232;2023-03-08T06:36:38;2.60;19.80
20174;DHT22;10246;50.620;7.232;2023-03-08T06:39:05;2.60;20.00
20174;DHT22;10246;50.620;7.232;2023-03-08T06:41:33;2.60;20.10
20174;DHT22;10246;50.620;7.232;2023-03-08T06:44:00;2.60;20.50
20174;DHT22;10246;50.620;7.232;2023-03-08T06:46:27;2.60;20.50
20174;DHT22;10246;50.620;7.232;2023-03-08T06:48:54;2.60;20.90
20174;DHT22;10246;50.620;7.232;2023-03-08T06:51:21;2.60;21.10
20174;DHT22;10246;50.620;7.232;2023-03-08T06:53:48;2.60;21.10
20174;DHT22;10246;50.620;7.232;2023-03-08T06:56:16;2.60;21.10
20174;DHT22;10246;50.620;7.232;2023-03-08T06:58:44;2.60;21.10
20174;DHT22;10246;50.620;7.232;2023-03-08T07:01:11;2.70;21.10
20174;DHT22;10246;50.620;7.232;2023-03-08T07:03:39;2.70;20.90
20174;DHT22;10246;50.620;7.232;2023-03-08T07:06:07;2.80;21.00
20174;DHT22;10246;50.620;7.232;2023-03-08T07:08:35;2.80;20.90
20174;DHT22;10246;50.620;7.232;2023-03-08T07:11:02;2.80;20.70
20174;DHT22;10246;50.620;7.232;2023-03-08T07:13:29;2.90;20.60
20174;DHT22;10246;50.620;7.232;2023-03-08T07:15:57;2.90;20.50
20174;DHT22;10246;50.620;7.232;2023-03-08T07:18:24;3.00;20.10
20174;DHT22;10246;50.620;7.232;2023-03-08T07:20:51;3.00;20.10
20174;DHT22;10246;50.620;7.232;2023-03-08T07:23:18;3.00;19.80
20174;DHT22;10246;50.620;7.232;2023-03-08T07:25:45;3.10;19.60
20174;DHT22;10246;50.620;7.232;2023-03-08T07:28:12;3.10;19.60
20174;DHT22;10246;50.620;7.232;2023-03-08T07:30:38;3.10;19.20
20174;DHT22;10246;50.620;7.232;2023-03-08T07:33:09;3.20;19.40
20174;DHT22;10246;50.620;7.232;2023-03-08T07:35:36;3.20;19.20
20174;DHT22;10246;50.620;7.232;2023-03-08T07:38:03;3.20;19.00
20174;DHT22;10246;50.620;7.232;2023-03-08T07:40:30;3.20;19.20
20174;DHT22;10246;50.620;7.232;2023-03-08T07:42:58;3.20;19.20
20174;DHT22;10246;50.620;7.232;2023-03-08T07:45:25;3.20;19.10
20174;DHT22;10246;50.620;7.232;2023-03-08T07:47:51;3.20;19.20
20174;DHT22;10246;50.620;7.232;2023-03-08T07:50:20;3.20;19.30
20174;DHT22;10246;50.620;7.232;2023-03-08T07:52:47;3.20;19.20
20174;DHT22;10246;50.620;7.232;2023-03-08T07:55:14;3.20;19.10
20174;DHT22;10246;50.620;7.232;2023-03-08T07:57:41;3.20;19.00
20174;DHT22;10246;50.620;7.232;2023-03-08T08:00:09;3.20;19.00
20174;DHT22;10246;50.620;7.232;2023-03-08T08:02:36;3.20;19.20
20174;DHT22;10246;50.620;7.232;2023-03-08T08:05:04;3.10;19.60
20174;DHT22;10246;50.620;7.232;2023-03-08T08:07:32;3.10;19.90
20174;DHT22;10246;50.620;7.232;2023-03-08T08:09:59;3.20;19.90
20174;DHT22;10246;50.620;7.232;2023-03-08T08:12:26;3.20;19.60
20174;DHT22;10246;50.620;7.232;2023-03-08T08:14:53;3.20;19.70
20174;DHT22;10246;50.620;7.232;2023-03-08T08:17:20;3.20;19.80
20174;DHT22;10246;50.620;7.232;2023-03-08T08:19:47;3.30;19.70
20174;DHT22;10246;50.620;7.232;2023-03-08T08:22:14;3.30;19.80
20174;DHT22;10246;50.620;7.232;2023-03-08T08:24:42;3.30;19.70
20174;DHT22;10246;50.620;7.232;2023-03-08T08:27:09;3.30;19.60
20174;DHT22;10246;50.620;7.232;2023-03-08T08:29:36;3.30;19.40
20174;DHT22;10246;50.620;7.232;2023-03-08T08:32:04;3.30;19.60
20174;DHT22;10246;50.620;7.232;2023-03-08T08:34:31;3.30;19.40
20174;DHT22;10246;50.620;7.232;2023-03-08T08:36:58;3.30;19.60
20174;DHT22;10246;50.620;7.232;2023-03-08T08:39:25;3.40;19.10
20174;DHT22;10246;50.620;7.232;2023-03-08T08:41:53;3.40;18.80
20174;DHT22;10246;50.620;7.232;2023-03-08T08:44:19;3.40;19.10
20174;DHT22;10246;50.620;7.232;2023-03-08T08:46:46;3.30;18.90
20174;DHT22;10246;50.620;7.232;2023-03-08T08:49:13;3.40;19.30
20174;DHT22;10246;50.620;7.232;2023-03-08T08:51:39;3.40;19.50
20174;DHT22;10246;50.620;7.232;2023-03-08T08:54:06;3.40;18.90
20174;DHT22;10246;50.620;7.232;2023-03-08T08:56:33;3.40;19.00
20174;DHT22;10246;50.620;7.232;2023-03-08T08:59:10;3.40;18.80
20174;DHT22;10246;50.620;7.232;2023-03-08T09:01:37;3.40;19.10
20174;DHT22;10246;50.620;7.232;2023-03-08T09:04:08;3.40;19.60
20174;DHT22;10246;50.620;7.232;2023-03-08T09:06:35;3.50;19.70
20174;DHT22;10246;50.620;7.232;2023-03-08T09:09:02;3.50;19.60
20174;DHT22;10246;50.620;7.232;2023-03-08T09:11:30;3.60;19.70
20174;DHT22;10246;50.620;7.232;2023-03-08T09:13:57;3.60;19.40
20174;DHT22;10246;50.620;7.232;2023-03-08T09:16:26;3.60;19.40
20174;DHT22;10246;50.620;7.232;2023-03-08T09:18:54;3.70;19.00
20174;DHT22;10246;50.620;7.232;2023-03-08T09:21:22;3.70;19.10
20174;DHT22;10246;50.620;7.232;2023-03-08T09:23:49;3.70;19.10
20174;DHT22;10246;50.620;7.232;2023-03-08T09:26:16;3.70;19.30
20174;DHT22;10246;50.620;7.232;2023-03-08T09:28:43;3.80;19.40
20174;DHT22;10246;50.620;7.232;2023-03-08T09:31:12;3.80;19.00
20174;DHT22;10246;50.620;7.232;2023-03-08T09:33:42;3.80;19.20
20174;DHT22;10246;50.620;7.232;2023-03-08T09:36:09;3.80;19.60
20174;DHT22;10246;50.620;7.232;2023-03-08T09:38:36;3.80;19.70
20174;DHT22;10246;50.620;7.232;2023-03-08T09:41:13;3.80;19.90
20174;DHT22;10246;50.620;7.232;2023-03-08T09:43:54;3.90;19.40
20174;DHT22;10246;50.620;7.232;2023-03-08T09:46:29;3.90;19.40
20174;DHT22;10246;50.620;7.232;2023-03-08T09:49:01;3.90;19.50
20174;DHT22;10246;50.620;7.232;2023-03-08T09:51:34;4.00;19.20
20174;DHT22;10246;50.620;7.232;2023-03-08T09:54:05;4.00;19.30
20174;DHT22;10246;50.620;7.232;2023-03-08T09:56:36;4.00;19.20
20174;DHT22;10246;50.620;7.232;2023-03-08T09:59:09;4.00;19.50
20174;DHT22;10246;50.620;7.232;2023-03-08T10:01:41;4.10;19.50
20174;DHT22;10246;50.620;7.232;2023-03-08T10:04:18;4.10;19.20
20174;DHT22;10246;50.620;7.232;2023-03-08T10:06:55;4.20;18.60
20174;DHT22;10246;50.620;7.232;2023-03-08T10:09:30;4.20;18.60
20174;DHT22;10246;50.620;7.232;2023-03-08T10:12:08;4.10;19.20
20174;DHT22;10246;50.620;7.232;2023-03-08T10:14:39;4.20;19.40
20174;DHT22;10246;50.620;7.232;2023-03-08T10:17:12;4.10;19.30
20174;DHT22;10246;50.620;7.232;2023-03-08T10:19:45;4.10;19.30
20174;DHT22;10246;50.620;7.232;2023-03-08T10:22:18;4.20;19.40
20174;DHT22;10246;50.620;7.232;2023-03-08T10:24:51;4.20;18.80
20174;DHT22;10246;50.620;7.232;2023-03-08T10:27:23;4.20;18.50
20174;DHT22;10246;50.620;7.232;2023-03-08T10:29:52;4.30;18.90
20174;DHT22;10246;50.620;7.232;2023-03-08T10:32:19;4.20;19.30
20174;DHT22;10246;50.620;7.232;2023-03-08T10:34:48;4.30;19.70
20174;DHT22;10246;50.620;7.232;2023-03-08T10:37:15;4.30;19.20
20174;DHT22;10246;50.620;7.232;2023-03-08T10:39:50;4.30;19.20
20174;DHT22;10246;50.620;7.232;2023-03-08T10:42:20;4.40;19.50
20174;DHT22;10246;50.620;7.232;2023-03-08T10:44:53;4.40;19.40
20174;DHT22;10246;50.620;7.232;2023-03-08T10:47:22;4.50;19.40
20174;DHT22;10246;50.620;7.232;2023-03-08T10:50:03;4.50;19.10
20174;DHT22;10246;50.620;7.232;2023-03-08T10:52:29;4.60;19.60
20174;DHT22;10246;50.620;7.232;2023-03-08T10:55:00;4.60;19.50
20174;DHT22;10246;50.620;7.232;2023-03-08T10:57:28;4.60;19.00
20174;DHT22;10246;50.620;7.232;2023-03-08T10:59:58;4.70;19.30
20174;DHT22;10246;50.620;7.232;2023-03-08T11:02:26;4.70;19.30
20174;DHT22;10246;50.620;7.232;2023-03-08T11:04:55;4.70;18.80
20174;DHT22;10246;50.620;7.232;2023-03-08T11:07:24;4.70;18.70
20174;DHT22;10246;50.620;7.232;2023-03-08T11:09:51;4.80;18.70
20174;DHT22;10246;50.620;7.232;2023-03-08T11:12:29;4.70;18.80
20174;DHT22;10246;50.620;7.232;2023-03-08T11:14:56;4.70;19.00
20174;DHT22;10246;50.620;7.232;2023-03-08T11:17:25;4.70;19.40
20174;DHT22;10246;50.620;7.232;2023-03-08T11:20:01;4.80;19.40
20174;DHT22;10246;50.620;7.232;2023-03-08T11:22:47;4.80;19.60
20174;DHT22;10246;50.620;7.232;2023-03-08T11:25:33;4.90;19.50
20174;DHT22;10246;50.620;7.232;2023-03-08T11:31:02;5.10;19.60
20174;DHT22;10246;50.620;7.232;2023-03-08T11:33:54;5.30;19.40
20174;DHT22;10246;50.620;7.232;2023-03-08T11:36:28;5.40;18.80
20174;DHT22;10246;50.620;7.232;2023-03-08T11:38:58;5.40;17.80
20174;DHT22;10246;50.620;7.232;2023-03-08T11:41:35;5.50;18.40
20174;DHT22;10246;50.620;7.232;2023-03-08T11:44:16;5.60;18.20
20174;DHT22;10246;50.620;7.232;2023-03-08T11:46:56;5.70;17.70
20174;DHT22;10246;50.620;7.232;2023-03-08T11:49:41;5.60;15.30
20174;DHT22;10246;50.620;7.232;2023-03-08T11:52:20;5.70;16.40
20174;DHT22;10246;50.620;7.232;2023-03-08T11:54:57;5.70;16.90
20174;DHT22;10246;50.620;7.232;2023-03-08T11:57:26;5.70;17.10
20174;DHT22;10246;50.620;7.232;2023-03-08T12:00:03;5.80;17.20
20174;DHT22;10246;50.620;7.232;2023-03-08T12:02:39;5.90;16.90
20174;DHT22;10246;50.620;7.232;2023-03-08T12:05:11;6.00;15.90
20174;DHT22;10246;50.620;7.232;2023-03-08T12:07:42;6.10;15.80
20174;DHT22;10246;50.620;7.232;2023-03-08T12:10:17;6.20;15.60
20174;DHT22;10246;50.620;7.232;2023-03-08T12:12:48;6.30;15.80
20174;DHT22;10246;50.620;7.232;2023-03-08T12:15:23;6.40;15.00
20174;DHT22;10246;50.620;7.232;2023-03-08T12:17:53;6.50;14.70
20174;DHT22;10246;50.620;7.232;2023-03-08T12:20:22;6.40;13.90
20174;DHT22;10246;50.620;7.232;2023-03-08T12:22:55;6.60;14.20
20174;DHT22;10246;50.620;7.232;2023-03-08T12:25:27;6.60;12.80
20174;DHT22;10246;50.620;7.232;2023-03-08T12:27:58;6.60;13.70
20174;DHT22;10246;50.620;7.232;2023-03-08T12:30:35;6.70;12.80
20174;DHT22;10246;50.620;7.232;2023-03-08T12:33:04;6.70;12.40
20174;DHT22;10246;50.620;7.232;2023-03-08T12:35:33;6.70;13.60
20174;DHT22;10246;50.620;7.232;2023-03-08T12:38:05;6.80;13.70
20174;DHT22;10246;50.620;7.232;2023-03-08T12:40:41;6.90;11.90
20174;DHT22;10246;50.620;7.232;2023-03-08T12:43:28;6.90;11.20
20174;DHT22;10246;50.620;7.232;2023-03-08T12:46:06;6.80;11.30
20174;DHT22;10246;50.620;7.232;2023-03-08T12:48:36;6.70;11.00
20174;DHT22;10246;50.620;7.232;2023-03-08T12:51:19;6.60;10.90
20174;DHT22;10246;50.620;7.232;2023-03-08T12:53:58;6.50;10.90
20174;DHT22;10246;50.620;7.232;2023-03-08T12:56:29;6.40;11.80
20174;DHT22;10246;50.620;7.232;2023-03-08T12:58:57;6.50;12.40
20174;DHT22;10246;50.620;7.232;2023-03-08T13:01:37;6.40;12.20
20174;DHT22;10246;50.620;7.232;2023-03-08T13:04:06;6.40;13.40
20174;DHT22;10246;50.620;7.232;2023-03-08T13:07:19;6.40;13.30
20174;DHT22;10246;50.620;7.232;2023-03-08T13:09:55;6.40;14.10
20174;DHT22;10246;50.620;7.232;2023-03-08T13:12:31;6.40;13.80
20174;DHT22;10246;50.620;7.232;2023-03-08T13:15:21;6.40;14.60
20174;DHT22;10246;50.620;7.232;2023-03-08T13:17:51;6.40;15.40
20174;DHT22;10246;50.620;7.232;2023-03-08T13:20:20;6.50;15.00
20174;DHT22;10246;50.620;7.232;2023-03-08T13:22:57;6.40;14.90
20174;DHT22;10246;50.620;7.232;2023-03-08T13:25:41;6.40;15.00
20174;DHT22;10246;50.620;7.232;2023-03-08T13:28:11;6.40;15.90
20174;DHT22;10246;50.620;7.232;2023-03-08T13:30:42;6.40;16.60
20174;DHT22;10246;50.620;7.232;2023-03-08T13:33:13;6.40;16.50
20174;DHT22;10246;50.620;7.232;2023-03-08T13:35:40;6.30;17.20
20174;DHT22;10246;50.620;7.232;2023-03-08T13:38:20;6.30;17.30
20174;DHT22;10246;50.620;7.232;2023-03-08T13:40:51;6.30;17.40
20174;DHT22;10246;50.620;7.232;2023-03-08T13:43:21;6.30;18.60
20174;DHT22;10246;50.620;7.232;2023-03-08T13:45:51;6.30;17.40
20174;DHT22;10246;50.620;7.232;2023-03-08T13:48:20;6.30;17.00
20174;DHT22;10246;50.620;7.232;2023-03-08T13:50:48;6.20;17.20
20174;DHT22;10246;50.620;7.232;2023-03-08T13:53:19;6.20;17.20
20174;DHT22;10246;50.620;7.232;2023-03-08T13:55:49;6.30;17.20
20174;DHT22;10246;50.620;7.232;2023-03-08T13:58:25;6.30;16.60
20174;DHT22;10246;50.620;7.232;2023-03-08T14:01:00;6.30;17.10
20174;DHT22;10246;50.620;7.232;2023-03-08T14:03:28;6.30;17.40
20174;DHT22;10246;50.620;7.232;2023-03-08T14:05:55;6.30;17.50
20174;DHT22;10246;50.620;7.232;2023-03-08T14:08:24;6.30;18.20
20174;DHT22;10246;50.620;7.232;2023-03-08T14:10:54;6.30;17.70
20174;DHT22;10246;50.620;7.232;2023-03-08T14:13:25;6.30;17.90
20174;DHT22;10246;50.620;7.232;2023-03-08T14:15:55;6.40;17.70
20174;DHT22;10246;50.620;7.232;2023-03-08T14:18:24;6.30;17.50
20174;DHT22;10246;50.620;7.232;2023-03-08T14:21:11;6.30;17.80
20174;DHT22;10246;50.620;7.232;2023-03-08T14:23:40;6.30;17.80
20174;DHT22;10246;50.620;7.232;2023-03-08T14:26:23;6.40;18.00
20174;DHT22;10246;50.620;7.232;2023-03-08T14:29:02;6.30;18.40
20174;DHT22;10246;50.620;7.232;2023-03-08T14:31:29;6.40;18.70
20174;DHT22;10246;50.620;7.232;2023-03-08T14:33:58;6.40;18.60
20174;DHT22;10246;50.620;7.232;2023-03-08T14:36:26;6.30;18.70
20174;DHT22;10246;50.620;7.232;2023-03-08T14:38:54;6.30;18.90
20174;DHT22;10246;50.620;7.232;2023-03-08T14:41:29;6.40;18.80
20174;DHT22;10246;50.620;7.232;2023-03-08T14:43:59;6.40;19.00
20174;DHT22;10246;50.620;7.232;2023-03-08T14:46:26;6.40;18.20
20174;DHT22;10246;50.620;7.232;2023-03-08T14:48:59;6.40;18.30
20174;DHT22;10246;50.620;7.232;2023-03-08T14:51:29;6.50;17.90
20174;DHT22;10246;50.620;7.232;2023-03-08T14:53:57;6.40;18.20
20174;DHT22;10246;50.620;7.232;2023-03-08T14:56:25;6.40;17.90
20174;DHT22;10246;50.620;7.232;2023-03-08T14:58:53;6.40;18.60
20174;DHT22;10246;50.620;7.232;2023-03-08T15:01:27;6.50;18.50
20174;DHT22;10246;50.620;7.232;2023-03-08T15:03:56;6.40;18.30
20174;DHT22;10246;50.620;7.232;2023-03-08T15:06:25;6.50;18.70
20174;DHT22;10246;50.620;7.232;2023-03-08T15:08:53;6.50;18.90
20174;DHT22;10246;50.620;7.232;2023-03-08T15:11:20;6.40;19.30
20174;DHT22;10246;50.620;7.232;2023-03-08T15:13:48;6.50;19.70
20174;DHT22;10246;50.620;7.232;2023-03-08T15:16:15;6.50;19.60
20174;DHT22;10246;50.620;7.232;2023-03-08T15:18:43;6.40;21.00
20174;DHT22;10246;50.620;7.232;2023-03-08T15:21:12;6.50;22.10
20174;DHT22;10246;50.620;7.232;2023-03-08T15:23:40;6.40;22.70
20174;DHT22;10246;50.620;7.232;2023-03-08T15:26:13;6.50;22.80
20174;DHT22;10246;50.620;7.232;2023-03-08T15:28:40;6.50;22.00
20174;DHT22;10246;50.620;7.232;2023-03-08T15:31:08;6.40;22.80
20174;DHT22;10246;50.620;7.232;2023-03-08T15:33:34;6.50;23.20
20174;DHT22;10246;50.620;7.232;2023-03-08T15:36:04;6.50;23.90
20174;DHT22;10246;50.620;7.232;2023-03-08T15:38:33;6.50;23.90
20174;DHT22;10246;50.620;7.232;2023-03-08T15:41:00;6.50;23.70
20174;DHT22;10246;50.620;7.232;2023-03-08T15:43:27;6.60;23.40
20174;DHT22;10246;50.620;7.232;2023-03-08T15:45:56;6.60;23.10
20174;DHT22;10246;50.620;7.232;2023-03-08T15:48:23;6.60;22.10
20174;DHT22;10246;50.620;7.232;2023-03-08T15:50:50;6.50;22.00
20174;DHT22;10246;50.620;7.232;2023-03-08T15:53:18;6.40;22.50
20174;DHT22;10246;50.620;7.232;2023-03-08T15:55:45;6.40;24.00
20174;DHT22;10246;50.620;7.232;2023-03-08T15:58:12;6.50;24.10
20174;DHT22;10246;50.620;7.232;2023-03-08T16:00:38;6.50;23.70